sensor_id;sensor_type;location;lat;lon;timestamp;P1;durP1;ratioP1;P2;durP2;ratioP2
7365;SDS011;3723;52.220;8.792;2024-02-21T00:00:57;20.07;;;8.10;;
7365;SDS011;3723;52.220;8.792;2024-02-21T00:03:24;26.60;;;8.63;;
7365;SDS011;3723;52.220;8.792;2024-02-21T00:05:51;25.63;;;8.50;;
7365;SDS011;3723;52.220;8.792;2024-02-21T00:08:18;29.47;;;9.40;;
7365;SDS011;3723;52.220;8.792;2024-02-21T00:10:46;31.10;;;8.07;;
7365;SDS011;3723;52.220;8.792;2024-02-21T00:13:14;29.60;;;9.20;;
7365;SDS011;3723;52.220;8.792;2024-02-21T00:15:41;28.63;;;9.43;;
7365;SDS011;3723;52.220;8.792;2024-02-21T00:18:08;21.80;;;9.10;;
7365;SDS011;3723;52.220;8.792;2024-02-21T00:20:35;23.67;;;8.40;;
7365;SDS011;3723;52.220;8.792;2024-02-21T00:23:03;20.97;;;7.20;;
7365;SDS011;3723;52.220;8.792;2024-02-21T00:25:29;29.60;;;9.77;;
7365;SDS011;3723;52.220;8.792;2024-02-21T00:27:57;24.47;;;9.30;;
7365;SDS011;3723;52.220;8.792;2024-02-21T00:30:25;28.70;;;10.10;;
7365;SDS011;3723;52.220;8.792;2024-02-21T00:32:52;28.50;;;8.87;;
7365;SDS011;3723;52.220;8.792;2024-02-21T00:35:19;19.67;;;7.00;;
7365;SDS011;3723;52.220;8.792;2024-02-21T00:37:46;28.00;;;9.63;;
7365;SDS011;3723;52.220;8.792;2024-02-21T00:40:13;23.80;;;9.30;;
7365;SDS011;3723;52.220;8.792;2024-02-21T00:42:44;25.47;;;10.27;;
7365;SDS011;3723;52.220;8.792;2024-02-21T00:45:13;32.87;;;10.13;;
7365;SDS011;3723;52.220;8.792;2024-02-21T00:47:41;22.97;;;8.70;;
7365;SDS011;3723;52.220;8.792;2024-02-21T00:50:08;28.60;;;8.70;;
7365;SDS011;3723;52.220;8.792;2024-02-21T00:52:35;23.37;;;8.73;;
7365;SDS011;3723;52.220;8.792;2024-02-21T00:55:02;21.20;;;8.63;;
7365;SDS011;3723;52.220;8.792;2024-02-21T00:57:30;20.63;;;7.40;;
7365;SDS011;3723;52.220;8.792;2024-02-21T00:59:57;26.03;;;8.77;;
7365;SDS011;3723;52.220;8.792;2024-02-21T01:02:25;21.43;;;7.13;;
7365;SDS011;3723;52.220;8.792;2024-02-21T01:04:52;30.13;;;9.10;;
7365;SDS011;3723;52.220;8.792;2024-02-21T01:07:19;29.20;;;10.30;;
7365;SDS011;3723;52.220;8.792;2024-02-21T01:09:46;21.20;;;7.17;;
7365;SDS011;3723;52.220;8.792;2024-02-21T01:12:13;20.93;;;9.37;;
7365;SDS011;3723;52.220;8.792;2024-02-21T01:14:39;19.73;;;7.20;;
7365;SDS011;3723;52.220;8.792;2024-02-21T01:17:06;23.73;;;7.70;;
7365;SDS011;3723;52.220;8.792;2024-02-21T01:19:34;25.87;;;8.67;;
7365;SDS011;3723;52.220;8.792;2024-02-21T01:22:01;19.63;;;7.13;;
7365;SDS011;3723;52.220;8.792;2024-02-21T01:24:28;24.23;;;9.30;;
7365;SDS011;3723;52.220;8.792;2024-02-21T01:26:55;19.20;;;8.17;;
7365;SDS011;3723;52.220;8.792;2024-02-21T01:29:22;27.77;;;10.17;;
7365;SDS011;3723;52.220;8.792;2024-02-21T01:31:49;18.33;;;5.77;;
7365;SDS011;3723;52.220;8.792;2024-02-21T01:34:16;25.00;;;8.40;;
7365;SDS011;3723;52.220;8.792;2024-02-21T01:36:44;23.03;;;8.13;;
7365;SDS011;3723;52.220;8.792;2024-02-21T01:39:11;24.43;;;9.17;;
7365;SDS011;3723;52.220;8.792;2024-02-21T01:41:37;23.13;;;8.10;;
7365;SDS011;3723;52.220;8.792;2024-02-21T01:44:04;31.50;;;9.67;;
7365;SDS011;3723;52.220;8.792;2024-02-21T01:46:31;23.53;;;6.90;;
7365;SDS011;3723;52.220;8.792;2024-02-21T01:48:58;27.20;;;9.07;;
7365;SDS011;3723;52.220;8.792;2024-02-21T01:51:26;19.97;;;8.23;;
7365;SDS011;3723;52.220;8.792;2024-02-21T01:53:54;15.87;;;6.80;;
7365;SDS011;3723;52.220;8.792;2024-02-21T01:56:22;26.83;;;9.03;;
7365;SDS011;3723;52.220;8.792;2024-02-21T01:58:50;23.40;;;8.03;;
7365;SDS011;3723;52.220;8.792;2024-02-21T02:01:17;24.30;;;8.37;;
7365;SDS011;3723;52.220;8.792;2024-02-21T02:03:45;26.57;;;10.77;;
7365;SDS011;3723;52.220;8.792;2024-02-21T02:06:12;30.63;;;7.97;;
7365;SDS011;3723;52.220;8.792;2024-02-21T02:08:39;25.67;;;10.10;;
7365;SDS011;3723;52.220;8.792;2024-02-21T02:11:07;24.70;;;9.07;;
7365;SDS011;3723;52.220;8.792;2024-02-21T02:13:34;20.37;;;7.00;;
7365;SDS011;3723;52.220;8.792;2024-02-21T02:16:01;33.37;;;9.80;;
7365;SDS011;3723;52.220;8.792;2024-02-21T02:18:28;24.00;;;9.17;;
7365;SDS011;3723;52.220;8.792;2024-02-21T02:20:55;23.13;;;7.67;;
7365;SDS011;3723;52.220;8.792;2024-02-21T02:23:24;25.93;;;8.60;;
7365;SDS011;3723;52.220;8.792;2024-02-21T02:25:52;20.40;;;8.97;;
7365;SDS011;3723;52.220;8.792;2024-02-21T02:28:19;27.37;;;9.67;;
7365;SDS011;3723;52.220;8.792;2024-02-21T02:30:46;26.30;;;9.60;;
7365;SDS011;3723;52.220;8.792;2024-02-21T02:33:14;24.43;;;8.10;;
7365;SDS011;3723;52.220;8.792;2024-02-21T02:35:42;25.03;;;8.97;;
7365;SDS011;3723;52.220;8.792;2024-02-21T02:38:09;23.83;;;8.67;;
7365;SDS011;3723;52.220;8.792;2024-02-21T02:40:38;25.87;;;9.57;;
7365;SDS011;3723;52.220;8.792;2024-02-21T02:43:05;18.17;;;6.77;;
7365;SDS011;3723;52.220;8.792;2024-02-21T02:45:32;25.60;;;9.90;;
7365;SDS011;3723;52.220;8.792;2024-02-21T02:47:59;25.50;;;9.30;;
7365;SDS011;3723;52.220;8.792;2024-02-21T02:50:28;26.20;;;9.07;;
7365;SDS011;3723;52.220;8.792;2024-02-21T02:52:55;28.30;;;9.47;;
7365;SDS011;3723;52.220;8.792;2024-02-21T02:55:22;25.83;;;9.30;;
7365;SDS011;3723;52.220;8.792;2024-02-21T02:57:50;31.97;;;10.63;;
7365;SDS011;3723;52.220;8.792;2024-02-21T03:00:17;21.20;;;7.43;;
7365;SDS011;3723;52.220;8.792;2024-02-21T03:02:46;23.00;;;9.80;;
7365;SDS011;3723;52.220;8.792;2024-02-21T03:05:16;27.57;;;8.00;;
7365;SDS011;3723;52.220;8.792;2024-02-21T03:07:44;22.57;;;9.47;;
7365;SDS011;3723;52.220;8.792;2024-02-21T03:10:11;22.67;;;7.53;;
7365;SDS011;3723;52.220;8.792;2024-02-21T03:12:39;24.40;;;8.67;;
7365;SDS011;3723;52.220;8.792;2024-02-21T03:15:08;25.10;;;9.33;;
7365;SDS011;3723;52.220;8.792;2024-02-21T03:17:35;24.17;;;6.90;;
7365;SDS011;3723;52.220;8.792;2024-02-21T03:20:02;23.47;;;8.83;;
7365;SDS011;3723;52.220;8.792;2024-02-21T03:22:30;22.73;;;7.43;;
7365;SDS011;3723;52.220;8.792;2024-02-21T03:24:57;25.57;;;9.47;;
7365;SDS011;3723;52.220;8.792;2024-02-21T03:27:24;26.57;;;9.10;;
7365;SDS011;3723;52.220;8.792;2024-02-21T03:29:51;24.77;;;9.87;;
7365;SDS011;3723;52.220;8.792;2024-02-21T03:32:19;28.03;;;8.40;;
7365;SDS011;3723;52.220;8.792;2024-02-21T03:34:46;20.63;;;8.10;;
7365;SDS011;3723;52.220;8.792;2024-02-21T03:37:13;25.13;;;9.77;;
7365;SDS011;3723;52.220;8.792;2024-02-21T03:39:40;27.80;;;9.37;;
7365;SDS011;3723;52.220;8.792;2024-02-21T03:42:08;23.80;;;10.67;;
7365;SDS011;3723;52.220;8.792;2024-02-21T03:44:36;26.20;;;10.93;;
7365;SDS011;3723;52.220;8.792;2024-02-21T03:47:03;29.53;;;9.40;;
7365;SDS011;3723;52.220;8.792;2024-02-21T03:49:32;33.40;;;10.73;;
7365;SDS011;3723;52.220;8.792;2024-02-21T03:51:59;30.83;;;9.90;;
7365;SDS011;3723;52.220;8.792;2024-02-21T03:54:25;20.67;;;7.80;;
7365;SDS011;3723;52.220;8.792;2024-02-21T03:56:52;28.23;;;9.93;;
7365;SDS011;3723;52.220;8.792;2024-02-21T03:59:19;27.27;;;8.67;;
7365;SDS011;3723;52.220;8.792;2024-02-21T04:01:47;25.10;;;8.50;;
7365;SDS011;3723;52.220;8.792;2024-02-21T04:04:18;22.27;;;7.20;;
7365;SDS011;3723;52.220;8.792;2024-02-21T04:06:50;25.27;;;7.93;;
7365;SDS011;3723;52.220;8.792;2024-02-21T04:09:17;19.87;;;8.20;;
7365;SDS011;3723;52.220;8.792;2024-02-21T04:11:44;17.90;;;7.60;;
7365;SDS011;3723;52.220;8.792;2024-02-21T04:14:11;24.57;;;7.50;;
7365;SDS011;3723;52.220;8.792;2024-02-21T04:16:38;20.47;;;7.87;;
7365;SDS011;3723;52.220;8.792;2024-02-21T04:19:05;19.80;;;6.97;;
7365;SDS011;3723;52.220;8.792;2024-02-21T04:21:32;19.60;;;7.33;;
7365;SDS011;3723;52.220;8.792;2024-02-21T04:24:00;23.60;;;8.57;;
7365;SDS011;3723;52.220;8.792;2024-02-21T04:26:30;21.47;;;8.40;;
7365;SDS011;3723;52.220;8.792;2024-02-21T04:28:57;22.63;;;8.27;;
7365;SDS011;3723;52.220;8.792;2024-02-21T04:31:23;26.00;;;10.40;;
7365;SDS011;3723;52.220;8.792;2024-02-21T04:33:50;24.03;;;8.80;;
7365;SDS011;3723;52.220;8.792;2024-02-21T04:36:17;23.33;;;7.93;;
7365;SDS011;3723;52.220;8.792;2024-02-21T04:38:44;19.83;;;8.53;;
7365;SDS011;3723;52.220;8.792;2024-02-21T04:41:13;25.07;;;9.70;;
7365;SDS011;3723;52.220;8.792;2024-02-21T04:43:40;22.60;;;9.27;;
7365;SDS011;3723;52.220;8.792;2024-02-21T04:46:07;22.57;;;7.60;;
7365;SDS011;3723;52.220;8.792;2024-02-21T04:48:35;23.90;;;10.27;;
7365;SDS011;3723;52.220;8.792;2024-02-21T04:51:02;28.80;;;10.27;;
7365;SDS011;3723;52.220;8.792;2024-02-21T04:53:30;22.93;;;8.80;;
7365;SDS011;3723;52.220;8.792;2024-02-21T04:55:57;19.80;;;9.40;;
7365;SDS011;3723;52.220;8.792;2024-02-21T04:58:25;22.90;;;9.07;;
7365;SDS011;3723;52.220;8.792;2024-02-21T05:00:52;29.53;;;10.63;;
7365;SDS011;3723;52.220;8.792;2024-02-21T05:03:19;21.03;;;9.13;;
7365;SDS011;3723;52.220;8.792;2024-02-21T05:05:46;24.67;;;10.03;;
7365;SDS011;3723;52.220;8.792;2024-02-21T05:08:13;23.40;;;9.90;;
7365;SDS011;3723;52.220;8.792;2024-02-21T05:10:40;29.20;;;9.53;;
7365;SDS011;3723;52.220;8.792;2024-02-21T05:13:07;32.30;;;8.10;;
7365;SDS011;3723;52.220;8.792;2024-02-21T05:15:35;25.43;;;8.80;;
7365;SDS011;3723;52.220;8.792;2024-02-21T05:18:02;22.93;;;8.10;;
7365;SDS011;3723;52.220;8.792;2024-02-21T05:20:29;28.00;;;9.10;;
7365;SDS011;3723;52.220;8.792;2024-02-21T05:22:56;21.47;;;8.90;;
7365;SDS011;3723;52.220;8.792;2024-02-21T05:25:23;21.60;;;8.50;;
7365;SDS011;3723;52.220;8.792;2024-02-21T05:27:50;20.37;;;9.13;;
7365;SDS011;3723;52.220;8.792;2024-02-21T05:30:19;27.93;;;10.63;;
7365;SDS011;3723;52.220;8.792;2024-02-21T05:32:47;27.23;;;9.40;;
7365;SDS011;3723;52.220;8.792;2024-02-21T05:35:14;19.20;;;7.77;;
7365;SDS011;3723;52.220;8.792;2024-02-21T05:37:41;27.13;;;9.73;;
7365;SDS011;3723;52.220;8.792;2024-02-21T05:40:08;18.80;;;8.30;;
7365;SDS011;3723;52.220;8.792;2024-02-21T05:42:38;23.73;;;8.63;;
7365;SDS011;3723;52.220;8.792;2024-02-21T05:45:05;24.33;;;9.67;;
7365;SDS011;3723;52.220;8.792;2024-02-21T05:47:32;27.73;;;9.30;;
7365;SDS011;3723;52.220;8.792;2024-02-21T05:50:00;23.03;;;10.53;;
7365;SDS011;3723;52.220;8.792;2024-02-21T05:52:27;24.60;;;8.70;;
7365;SDS011;3723;52.220;8.792;2024-02-21T05:54:54;22.87;;;8.97;;
7365;SDS011;3723;52.220;8.792;2024-02-21T05:57:22;25.57;;;9.23;;
7365;SDS011;3723;52.220;8.792;2024-02-21T05:59:48;18.37;;;7.57;;
7365;SDS011;3723;52.220;8.792;2024-02-21T06:02:15;22.30;;;8.90;;
7365;SDS011;3723;52.220;8.792;2024-02-21T06:04:42;28.20;;;9.50;;
7365;SDS011;3723;52.220;8.792;2024-02-21T06:07:10;25.57;;;9.60;;
7365;SDS011;3723;52.220;8.792;2024-02-21T06:09:37;20.50;;;7.37;;
7365;SDS011;3723;52.220;8.792;2024-02-21T06:12:04;24.83;;;8.20;;
7365;SDS011;3723;52.220;8.792;2024-02-21T06:14:31;22.07;;;8.20;;
7365;SDS011;3723;52.220;8.792;2024-02-21T06:16:58;19.27;;;7.17;;
7365;SDS011;3723;52.220;8.792;2024-02-21T06:19:25;21.33;;;8.40;;
7365;SDS011;3723;52.220;8.792;2024-02-21T06:21:51;23.40;;;7.70;;
7365;SDS011;3723;52.220;8.792;2024-02-21T06:24:19;22.33;;;9.17;;
7365;SDS011;3723;52.220;8.792;2024-02-21T06:26:46;21.07;;;7.80;;
7365;SDS011;3723;52.220;8.792;2024-02-21T06:29:14;25.57;;;8.57;;
7365;SDS011;3723;52.220;8.792;2024-02-21T06:31:41;23.87;;;8.50;;
7365;SDS011;3723;52.220;8.792;2024-02-21T06:34:08;24.53;;;9.70;;
7365;SDS011;3723;52.220;8.792;2024-02-21T06:36:35;17.67;;;6.93;;
7365;SDS011;3723;52.220;8.792;2024-02-21T06:39:02;22.77;;;9.37;;
7365;SDS011;3723;52.220;8.792;2024-02-21T06:41:33;24.37;;;10.27;;
7365;SDS011;3723;52.220;8.792;2024-02-21T06:44:01;24.77;;;7.73;;
7365;SDS011;3723;52.220;8.792;2024-02-21T06:46:28;25.73;;;10.20;;
7365;SDS011;3723;52.220;8.792;2024-02-21T06:48:57;24.17;;;10.57;;
7365;SDS011;3723;52.220;8.792;2024-02-21T06:51:25;22.50;;;7.77;;
7365;SDS011;3723;52.220;8.792;2024-02-21T06:53:52;26.20;;;11.17;;
7365;SDS011;3723;52.220;8.792;2024-02-21T06:56:19;17.27;;;8.03;;
7365;SDS011;3723;52.220;8.792;2024-02-21T06:58:47;22.03;;;8.67;;
7365;SDS011;3723;52.220;8.792;2024-02-21T07:01:14;25.27;;;9.43;;
7365;SDS011;3723;52.220;8.792;2024-02-21T07:03:41;20.40;;;8.67;;
7365;SDS011;3723;52.220;8.792;2024-02-21T07:06:09;21.57;;;9.87;;
7365;SDS011;3723;52.220;8.792;2024-02-21T07:08:36;20.73;;;8.17;;
7365;SDS011;3723;52.220;8.792;2024-02-21T07:11:04;25.93;;;8.40;;
7365;SDS011;3723;52.220;8.792;2024-02-21T07:13:31;24.00;;;8.73;;
7365;SDS011;3723;52.220;8.792;2024-02-21T07:16:00;23.43;;;7.70;;
7365;SDS011;3723;52.220;8.792;2024-02-21T07:18:27;19.00;;;8.63;;
7365;SDS011;3723;52.220;8.792;2024-02-21T07:20:53;21.80;;;7.80;;
7365;SDS011;3723;52.220;8.792;2024-02-21T07:23:20;23.07;;;7.90;;
7365;SDS011;3723;52.220;8.792;2024-02-21T07:25:47;24.27;;;8.70;;
7365;SDS011;3723;52.220;8.792;2024-02-21T07:28:14;20.33;;;6.47;;
7365;SDS011;3723;52.220;8.792;2024-02-21T07:30:41;17.60;;;7.33;;
7365;SDS011;3723;52.220;8.792;2024-02-21T07:33:09;18.83;;;6.80;;
7365;SDS011;3723;52.220;8.792;2024-02-21T07:35:36;18.97;;;6.70;;
7365;SDS011;3723;52.220;8.792;2024-02-21T07:38:05;16.73;;;5.93;;
7365;SDS011;3723;52.220;8.792;2024-02-21T07:40:33;23.90;;;6.47;;
7365;SDS011;3723;52.220;8.792;2024-02-21T07:43:01;18.50;;;6.30;;
7365;SDS011;3723;52.220;8.792;2024-02-21T07:45:27;18.53;;;6.57;;
7365;SDS011;3723;52.220;8.792;2024-02-21T07:47:54;14.00;;;4.43;;
7365;SDS011;3723;52.220;8.792;2024-02-21T07:50:22;21.10;;;6.00;;
7365;SDS011;3723;52.220;8.792;2024-02-21T07:52:49;14.50;;;5.87;;
7365;SDS011;3723;52.220;8.792;2024-02-21T07:55:16;17.13;;;5.20;;
7365;SDS011;3723;52.220;8.792;2024-02-21T07:57:43;23.53;;;5.30;;
7365;SDS011;3723;52.220;8.792;2024-02-21T08:00:10;20.13;;;4.50;;
7365;SDS011;3723;52.220;8.792;2024-02-21T08:02:44;15.90;;;5.17;;
7365;SDS011;3723;52.220;8.792;2024-02-21T08:05:11;16.50;;;4.90;;
7365;SDS011;3723;52.220;8.792;2024-02-21T08:07:39;15.30;;;4.77;;
7365;SDS011;3723;52.220;8.792;2024-02-21T08:10:07;14.57;;;5.50;;
7365;SDS011;3723;52.220;8.792;2024-02-21T08:12:34;13.83;;;4.43;;
7365;SDS011;3723;52.220;8.792;2024-02-21T08:15:01;17.57;;;4.97;;
7365;SDS011;3723;52.220;8.792;2024-02-21T08:17:29;17.80;;;5.10;;
7365;SDS011;3723;52.220;8.792;2024-02-21T08:19:56;15.20;;;4.20;;
7365;SDS011;3723;52.220;8.792;2024-02-21T08:22:23;13.33;;;3.83;;
7365;SDS011;3723;52.220;8.792;2024-02-21T08:24:51;13.80;;;3.43;;
7365;SDS011;3723;52.220;8.792;2024-02-21T08:27:18;12.30;;;3.87;;
7365;SDS011;3723;52.220;8.792;2024-02-21T08:29:45;13.00;;;3.90;;
7365;SDS011;3723;52.220;8.792;2024-02-21T08:32:12;18.13;;;3.83;;
7365;SDS011;3723;52.220;8.792;2024-02-21T08:34:40;11.43;;;3.50;;
7365;SDS011;3723;52.220;8.792;2024-02-21T08:37:07;12.73;;;4.10;;
7365;SDS011;3723;52.220;8.792;2024-02-21T08:39:35;12.27;;;3.40;;
7365;SDS011;3723;52.220;8.792;2024-02-21T08:42:04;13.63;;;3.50;;
7365;SDS011;3723;52.220;8.792;2024-02-21T08:44:31;18.10;;;3.80;;
7365;SDS011;3723;52.220;8.792;2024-02-21T08:46:58;11.97;;;3.13;;
7365;SDS011;3723;52.220;8.792;2024-02-21T08:49:25;12.47;;;3.83;;
7365;SDS011;3723;52.220;8.792;2024-02-21T08:51:53;9.43;;;3.10;;
7365;SDS011;3723;52.220;8.792;2024-02-21T08:54:20;14.40;;;2.87;;
7365;SDS011;3723;52.220;8.792;2024-02-21T08:56:47;10.40;;;3.07;;
7365;SDS011;3723;52.220;8.792;2024-02-21T08:59:15;13.57;;;3.00;;
7365;SDS011;3723;52.220;8.792;2024-02-21T09:01:42;12.00;;;3.47;;
7365;SDS011;3723;52.220;8.792;2024-02-21T09:04:09;11.83;;;3.27;;
7365;SDS011;3723;52.220;8.792;2024-02-21T09:06:36;24.73;;;3.23;;
7365;SDS011;3723;52.220;8.792;2024-02-21T09:09:06;11.80;;;3.37;;
7365;SDS011;3723;52.220;8.792;2024-02-21T09:11:33;13.13;;;3.00;;
7365;SDS011;3723;52.220;8.792;2024-02-21T09:14:00;11.07;;;2.93;;
7365;SDS011;3723;52.220;8.792;2024-02-21T09:16:30;12.70;;;2.90;;
7365;SDS011;3723;52.220;8.792;2024-02-21T09:18:57;20.10;;;2.93;;
7365;SDS011;3723;52.220;8.792;2024-02-21T09:21:24;16.30;;;3.87;;
7365;SDS011;3723;52.220;8.792;2024-02-21T09:23:51;15.93;;;2.77;;
7365;SDS011;3723;52.220;8.792;2024-02-21T09:26:17;14.33;;;3.07;;
7365;SDS011;3723;52.220;8.792;2024-02-21T09:28:44;12.93;;;2.97;;
7365;SDS011;3723;52.220;8.792;2024-02-21T09:31:11;11.00;;;2.47;;
7365;SDS011;3723;52.220;8.792;2024-02-21T09:33:39;15.03;;;3.07;;
7365;SDS011;3723;52.220;8.792;2024-02-21T09:36:06;11.43;;;2.27;;
7365;SDS011;3723;52.220;8.792;2024-02-21T09:38:33;9.80;;;2.43;;
7365;SDS011;3723;52.220;8.792;2024-02-21T09:41:01;13.83;;;2.53;;
7365;SDS011;3723;52.220;8.792;2024-02-21T09:43:35;11.97;;;2.37;;
7365;SDS011;3723;52.220;8.792;2024-02-21T09:46:06;11.37;;;2.17;;
7365;SDS011;3723;52.220;8.792;2024-02-21T09:48:44;9.70;;;2.13;;
7365;SDS011;3723;52.220;8.792;2024-02-21T09:51:20;12.40;;;2.30;;
7365;SDS011;3723;52.220;8.792;2024-02-21T09:53:47;11.50;;;3.13;;
7365;SDS011;3723;52.220;8.792;2024-02-21T09:56:17;13.43;;;2.90;;
7365;SDS011;3723;52.220;8.792;2024-02-21T09:58:44;8.77;;;2.33;;
7365;SDS011;3723;52.220;8.792;2024-02-21T10:01:13;12.30;;;2.60;;
7365;SDS011;3723;52.220;8.792;2024-02-21T10:03:42;8.20;;;1.63;;
7365;SDS011;3723;52.220;8.792;2024-02-21T10:06:09;9.20;;;2.30;;
7365;SDS011;3723;52.220;8.792;2024-02-21T10:08:36;13.93;;;2.37;;
7365;SDS011;3723;52.220;8.792;2024-02-21T10:11:03;10.90;;;2.43;;
7365;SDS011;3723;52.220;8.792;2024-02-21T10:13:30;9.70;;;2.00;;
7365;SDS011;3723;52.220;8.792;2024-02-21T10:16:00;9.07;;;2.23;;
7365;SDS011;3723;52.220;8.792;2024-02-21T10:18:28;8.37;;;1.80;;
7365;SDS011;3723;52.220;8.792;2024-02-21T10:21:03;10.80;;;2.20;;
7365;SDS011;3723;52.220;8.792;2024-02-21T10:23:40;9.90;;;2.40;;
7365;SDS011;3723;52.220;8.792;2024-02-21T10:26:11;8.83;;;1.47;;
7365;SDS011;3723;52.220;8.792;2024-02-21T10:28:38;8.53;;;1.57;;
7365;SDS011;3723;52.220;8.792;2024-02-21T10:31:07;9.53;;;1.83;;
7365;SDS011;3723;52.220;8.792;2024-02-21T10:33:35;8.43;;;1.47;;
7365;SDS011;3723;52.220;8.792;2024-02-21T10:39:26;8.00;;;1.70;;
7365;SDS011;3723;52.220;8.792;2024-02-21T10:41:53;8.80;;;1.50;;
7365;SDS011;3723;52.220;8.792;2024-02-21T10:44:22;14.63;;;1.80;;
7365;SDS011;3723;52.220;8.792;2024-02-21T10:46:51;9.03;;;1.70;;
7365;SDS011;3723;52.220;8.792;2024-02-21T10:49:22;11.40;;;1.83;;
7365;SDS011;3723;52.220;8.792;2024-02-21T10:51:51;11.70;;;1.70;;
7365;SDS011;3723;52.220;8.792;2024-02-21T10:54:33;8.63;;;1.50;;
7365;SDS011;3723;52.220;8.792;2024-02-21T10:57:14;11.13;;;1.80;;
7365;SDS011;3723;52.220;8.792;2024-02-21T10:59:41;8.80;;;2.33;;
7365;SDS011;3723;52.220;8.792;2024-02-21T11:02:10;12.90;;;1.93;;
7365;SDS011;3723;52.220;8.792;2024-02-21T11:04:37;10.17;;;2.57;;
7365;SDS011;3723;52.220;8.792;2024-02-21T11:07:08;11.07;;;1.97;;
7365;SDS011;3723;52.220;8.792;2024-02-21T11:09:36;8.57;;;1.73;;
7365;SDS011;3723;52.220;8.792;2024-02-21T11:12:03;7.90;;;1.60;;
7365;SDS011;3723;52.220;8.792;2024-02-21T11:14:31;9.37;;;1.97;;
7365;SDS011;3723;52.220;8.792;2024-02-21T11:17:14;8.97;;;1.67;;
7365;SDS011;3723;52.220;8.792;2024-02-21T11:19:41;10.20;;;1.80;;
7365;SDS011;3723;52.220;8.792;2024-02-21T11:22:13;10.27;;;2.03;;
7365;SDS011;3723;52.220;8.792;2024-02-21T11:24:43;8.80;;;1.90;;
7365;SDS011;3723;52.220;8.792;2024-02-21T11:27:11;9.30;;;1.97;;
7365;SDS011;3723;52.220;8.792;2024-02-21T11:29:42;8.73;;;1.73;;
7365;SDS011;3723;52.220;8.792;2024-02-21T11:32:09;9.77;;;2.17;;
7365;SDS011;3723;52.220;8.792;2024-02-21T11:34:52;10.83;;;2.13;;
7365;SDS011;3723;52.220;8.792;2024-02-21T11:37:32;10.97;;;2.30;;
7365;SDS011;3723;52.220;8.792;2024-02-21T11:40:04;10.57;;;2.70;;
7365;SDS011;3723;52.220;8.792;2024-02-21T11:42:32;13.00;;;2.00;;
7365;SDS011;3723;52.220;8.792;2024-02-21T11:44:59;8.70;;;2.03;;
7365;SDS011;3723;52.220;8.792;2024-02-21T11:47:28;10.93;;;2.47;;
7365;SDS011;3723;52.220;8.792;2024-02-21T11:49:54;11.80;;;2.60;;
7365;SDS011;3723;52.220;8.792;2024-02-21T11:52:21;10.50;;;2.83;;
7365;SDS011;3723;52.220;8.792;2024-02-21T11:54:50;14.37;;;4.20;;
7365;SDS011;3723;52.220;8.792;2024-02-21T11:57:19;13.93;;;3.50;;
7365;SDS011;3723;52.220;8.792;2024-02-21T11:59:47;15.47;;;2.97;;
7365;SDS011;3723;52.220;8.792;2024-02-21T12:02:14;10.40;;;2.97;;
7365;SDS011;3723;52.220;8.792;2024-02-21T12:04:42;11.37;;;2.67;;
7365;SDS011;3723;52.220;8.792;2024-02-21T12:07:10;13.43;;;3.90;;
7365;SDS011;3723;52.220;8.792;2024-02-21T12:09:37;14.17;;;3.70;;
7365;SDS011;3723;52.220;8.792;2024-02-21T12:12:04;14.23;;;2.57;;
7365;SDS011;3723;52.220;8.792;2024-02-21T12:14:33;13.67;;;2.40;;
7365;SDS011;3723;52.220;8.792;2024-02-21T12:17:02;13.47;;;3.30;;
7365;SDS011;3723;52.220;8.792;2024-02-21T12:19:30;13.53;;;3.07;;
7365;SDS011;3723;52.220;8.792;2024-02-21T12:21:58;11.70;;;3.00;;
7365;SDS011;3723;52.220;8.792;2024-02-21T12:24:26;11.17;;;2.93;;
7365;SDS011;3723;52.220;8.792;2024-02-21T12:26:55;15.83;;;3.00;;
7365;SDS011;3723;52.220;8.792;2024-02-21T12:29:24;12.03;;;3.47;;
7365;SDS011;3723;52.220;8.792;2024-02-21T12:31:52;14.10;;;2.47;;
7365;SDS011;3723;52.220;8.792;2024-02-21T12:34:20;13.93;;;3.90;;
7365;SDS011;3723;52.220;8.792;2024-02-21T12:36:47;14.90;;;3.77;;
7365;SDS011;3723;52.220;8.792;2024-02-21T12:39:14;16.10;;;3.27;;
7365;SDS011;3723;52.220;8.792;2024-02-21T12:41:42;11.83;;;2.73;;
7365;SDS011;3723;52.220;8.792;2024-02-21T12:44:09;12.37;;;3.30;;
7365;SDS011;3723;52.220;8.792;2024-02-21T12:46:37;12.97;;;2.70;;
7365;SDS011;3723;52.220;8.792;2024-02-21T12:49:06;14.17;;;3.13;;
7365;SDS011;3723;52.220;8.792;2024-02-21T12:51:33;14.70;;;3.00;;
7365;SDS011;3723;52.220;8.792;2024-02-21T12:54:01;8.97;;;2.30;;
7365;SDS011;3723;52.220;8.792;2024-02-21T12:56:29;13.03;;;2.73;;
7365;SDS011;3723;52.220;8.792;2024-02-21T12:58:56;12.23;;;2.83;;
7365;SDS011;3723;52.220;8.792;2024-02-21T13:01:23;15.67;;;3.27;;
7365;SDS011;3723;52.220;8.792;2024-02-21T13:03:51;11.57;;;2.47;;
7365;SDS011;3723;52.220;8.792;2024-02-21T13:06:20;10.50;;;2.30;;
7365;SDS011;3723;52.220;8.792;2024-02-21T13:08:47;12.00;;;3.40;;
7365;SDS011;3723;52.220;8.792;2024-02-21T13:11:14;13.27;;;2.63;;
7365;SDS011;3723;52.220;8.792;2024-02-21T13:13:40;11.60;;;2.50;;
7365;SDS011;3723;52.220;8.792;2024-02-21T13:16:07;12.57;;;2.33;;
7365;SDS011;3723;52.220;8.792;2024-02-21T13:18:35;10.03;;;2.40;;
7365;SDS011;3723;52.220;8.792;2024-02-21T13:21:03;9.03;;;1.97;;
7365;SDS011;3723;52.220;8.792;2024-02-21T13:23:31;8.83;;;1.70;;
7365;SDS011;3723;52.220;8.792;2024-02-21T13:25:58;14.60;;;2.60;;
7365;SDS011;3723;52.220;8.792;2024-02-21T13:28:25;10.40;;;2.10;;
7365;SDS011;3723;52.220;8.792;2024-02-21T13:30:52;12.03;;;2.17;;
7365;SDS011;3723;52.220;8.792;2024-02-21T13:33:19;9.20;;;1.80;;
7365;SDS011;3723;52.220;8.792;2024-02-21T13:35:46;12.50;;;2.33;;
7365;SDS011;3723;52.220;8.792;2024-02-21T13:38:13;10.07;;;1.67;;
7365;SDS011;3723;52.220;8.792;2024-02-21T13:40:41;14.87;;;2.33;;
7365;SDS011;3723;52.220;8.792;2024-02-21T13:43:08;10.70;;;2.23;;
7365;SDS011;3723;52.220;8.792;2024-02-21T13:45:35;8.50;;;1.93;;
7365;SDS011;3723;52.220;8.792;2024-02-21T13:48:02;10.53;;;2.60;;
7365;SDS011;3723;52.220;8.792;2024-02-21T13:50:31;13.37;;;2.43;;
7365;SDS011;3723;52.220;8.792;2024-02-21T13:53:08;9.10;;;2.73;;
7365;SDS011;3723;52.220;8.792;2024-02-21T13:55:35;12.43;;;2.13;;
7365;SDS011;3723;52.220;8.792;2024-02-21T13:58:03;10.30;;;1.60;;
7365;SDS011;3723;52.220;8.792;2024-02-21T14:00:30;10.30;;;1.93;;
7365;SDS011;3723;52.220;8.792;2024-02-21T14:02:58;13.60;;;2.30;;
7365;SDS011;3723;52.220;8.792;2024-02-21T14:05:26;9.37;;;1.63;;
7365;SDS011;3723;52.220;8.792;2024-02-21T14:07:53;11.67;;;2.00;;
7365;SDS011;3723;52.220;8.792;2024-02-21T14:10:21;15.47;;;1.90;;
7365;SDS011;3723;52.220;8.792;2024-02-21T14:12:48;10.03;;;1.97;;
7365;SDS011;3723;52.220;8.792;2024-02-21T14:15:17;11.00;;;1.97;;
7365;SDS011;3723;52.220;8.792;2024-02-21T14:17:44;10.20;;;2.00;;
7365;SDS011;3723;52.220;8.792;2024-02-21T14:20:11;8.90;;;2.10;;
7365;SDS011;3723;52.220;8.792;2024-02-21T14:22:39;11.23;;;1.53;;
7365;SDS011;3723;52.220;8.792;2024-02-21T14:25:06;11.63;;;1.83;;
7365;SDS011;3723;52.220;8.792;2024-02-21T14:27:33;9.50;;;1.90;;
7365;SDS011;3723;52.220;8.792;2024-02-21T14:30:01;9.10;;;1.60;;
7365;SDS011;3723;52.220;8.792;2024-02-21T14:32:30;10.73;;;1.90;;
7365;SDS011;3723;52.220;8.792;2024-02-21T14:34:57;9.83;;;1.97;;
7365;SDS011;3723;52.220;8.792;2024-02-21T14:37:24;10.90;;;2.00;;
7365;SDS011;3723;52.220;8.792;2024-02-21T14:39:51;10.83;;;2.20;;
7365;SDS011;3723;52.220;8.792;2024-02-21T14:42:18;10.23;;;1.83;;
7365;SDS011;3723;52.220;8.792;2024-02-21T14:44:45;9.70;;;2.53;;
7365;SDS011;3723;52.220;8.792;2024-02-21T14:47:13;10.63;;;3.10;;
7365;SDS011;3723;52.220;8.792;2024-02-21T14:49:41;10.50;;;2.13;;
7365;SDS011;3723;52.220;8.792;2024-02-21T14:52:08;8.80;;;1.90;;
7365;SDS011;3723;52.220;8.792;2024-02-21T14:54:35;11.00;;;1.77;;
7365;SDS011;3723;52.220;8.792;2024-02-21T14:57:04;17.43;;;2.03;;
7365;SDS011;3723;52.220;8.792;2024-02-21T14:59:31;7.70;;;1.50;;
7365;SDS011;3723;52.220;8.792;2024-02-21T15:01:58;8.37;;;1.30;;
7365;SDS011;3723;52.220;8.792;2024-02-21T15:04:25;21.10;;;2.10;;
7365;SDS011;3723;52.220;8.792;2024-02-21T15:06:53;10.60;;;1.73;;
7365;SDS011;3723;52.220;8.792;2024-02-21T15:09:20;11.10;;;1.93;;